sensor_id;sensor_type;location;lat;lon;timestamp;P1;durP1;ratioP1;P2;durP2;ratioP2
78027;SDS011;67235;45.638;11.714;2023-03-14T00:00:40;39.30;;;25.38;;
78027;SDS011;67235;45.638;11.714;2023-03-14T00:03:45;38.13;;;25.48;;
78027;SDS011;67235;45.638;11.714;2023-03-14T00:06:18;40.63;;;26.05;;
78027;SDS011;67235;45.638;11.714;2023-03-14T00:09:05;37.92;;;26.10;;
78027;SDS011;67235;45.638;11.714;2023-03-14T00:11:34;38.53;;;25.27;;
78027;SDS011;67235;45.638;11.714;2023-03-14T00:14:11;38.10;;;24.98;;
78027;SDS011;67235;45.638;11.714;2023-03-14T00:16:45;38.72;;;25.67;;
78027;SDS011;67235;45.638;11.714;2023-03-14T00:19:11;36.85;;;24.58;;
78027;SDS011;67235;45.638;11.714;2023-03-14T00:21:44;39.13;;;25.65;;
78027;SDS011;67235;45.638;11.714;2023-03-14T00:24:13;42.83;;;25.60;;
78027;SDS011;67235;45.638;11.714;2023-03-14T00:26:53;40.38;;;25.88;;
78027;SDS011;67235;45.638;11.714;2023-03-14T00:29:31;46.40;;;28.17;;
78027;SDS011;67235;45.638;11.714;2023-03-14T00:31:59;41.65;;;27.08;;
78027;SDS011;67235;45.638;11.714;2023-03-14T00:34:33;40.33;;;26.38;;
78027;SDS011;67235;45.638;11.714;2023-03-14T00:37:02;40.13;;;25.93;;
78027;SDS011;67235;45.638;11.714;2023-03-14T00:39:41;36.90;;;23.85;;
78027;SDS011;67235;45.638;11.714;2023-03-14T00:42:09;37.97;;;23.98;;
78027;SDS011;67235;45.638;11.714;2023-03-14T00:44:42;35.80;;;22.92;;
78027;SDS011;67235;45.638;11.714;2023-03-14T00:47:13;37.17;;;21.95;;
78027;SDS011;67235;45.638;11.714;2023-03-14T00:49:41;34.73;;;22.13;;
78027;SDS011;67235;45.638;11.714;2023-03-14T00:52:08;36.70;;;22.25;;
78027;SDS011;67235;45.638;11.714;2023-03-14T00:54:35;34.47;;;21.83;;
78027;SDS011;67235;45.638;11.714;2023-03-14T00:57:02;34.35;;;21.45;;
78027;SDS011;67235;45.638;11.714;2023-03-14T00:59:28;32.47;;;20.52;;
78027;SDS011;67235;45.638;11.714;2023-03-14T01:01:54;28.60;;;19.63;;
78027;SDS011;67235;45.638;11.714;2023-03-14T01:04:22;36.13;;;22.00;;
78027;SDS011;67235;45.638;11.714;2023-03-14T01:06:49;35.83;;;22.30;;
78027;SDS011;67235;45.638;11.714;2023-03-14T01:09:15;36.17;;;21.20;;
78027;SDS011;67235;45.638;11.714;2023-03-14T01:11:43;36.60;;;22.33;;
78027;SDS011;67235;45.638;11.714;2023-03-14T01:14:11;36.88;;;21.70;;
78027;SDS011;67235;45.638;11.714;2023-03-14T01:16:41;34.53;;;22.33;;
78027;SDS011;67235;45.638;11.714;2023-03-14T01:19:07;35.17;;;21.75;;
78027;SDS011;67235;45.638;11.714;2023-03-14T01:21:35;35.85;;;22.63;;
78027;SDS011;67235;45.638;11.714;2023-03-14T01:26:39;35.00;;;22.10;;
78027;SDS011;67235;45.638;11.714;2023-03-14T01:29:06;35.75;;;22.77;;
78027;SDS011;67235;45.638;11.714;2023-03-14T01:31:35;35.92;;;21.63;;
78027;SDS011;67235;45.638;11.714;2023-03-14T01:34:02;36.22;;;22.00;;
78027;SDS011;67235;45.638;11.714;2023-03-14T01:36:29;35.00;;;23.67;;
78027;SDS011;67235;45.638;11.714;2023-03-14T01:38:56;36.95;;;22.20;;
78027;SDS011;67235;45.638;11.714;2023-03-14T01:41:23;35.42;;;23.38;;
78027;SDS011;67235;45.638;11.714;2023-03-14T01:43:51;36.63;;;23.48;;
78027;SDS011;67235;45.638;11.714;2023-03-14T01:46:25;36.58;;;22.55;;
78027;SDS011;67235;45.638;11.714;2023-03-14T01:49:27;33.80;;;22.20;;
78027;SDS011;67235;45.638;11.714;2023-03-14T01:52:23;37.38;;;21.70;;
78027;SDS011;67235;45.638;11.714;2023-03-14T01:55:06;33.55;;;21.85;;
78027;SDS011;67235;45.638;11.714;2023-03-14T01:57:53;33.28;;;21.10;;
78027;SDS011;67235;45.638;11.714;2023-03-14T02:00:25;31.58;;;21.63;;
78027;SDS011;67235;45.638;11.714;2023-03-14T02:09:39;25.40;;;17.13;;
78027;SDS011;67235;45.638;11.714;2023-03-14T02:12:09;25.17;;;16.15;;
78027;SDS011;67235;45.638;11.714;2023-03-14T02:14:52;24.85;;;16.38;;
78027;SDS011;67235;45.638;11.714;2023-03-14T02:17:43;26.03;;;15.60;;
78027;SDS011;67235;45.638;11.714;2023-03-14T02:23:20;25.75;;;16.23;;
78027;SDS011;67235;45.638;11.714;2023-03-14T02:29:12;24.88;;;15.68;;
78027;SDS011;67235;45.638;11.714;2023-03-14T02:31:53;24.83;;;15.37;;
78027;SDS011;67235;45.638;11.714;2023-03-14T02:34:32;25.35;;;15.20;;
78027;SDS011;67235;45.638;11.714;2023-03-14T02:37:01;24.45;;;14.85;;
78027;SDS011;67235;45.638;11.714;2023-03-14T02:39:37;24.52;;;15.05;;
78027;SDS011;67235;45.638;11.714;2023-03-14T02:42:07;22.85;;;15.45;;
78027;SDS011;67235;45.638;11.714;2023-03-14T02:44:35;21.37;;;14.63;;
78027;SDS011;67235;45.638;11.714;2023-03-14T02:47:15;23.17;;;14.82;;
78027;SDS011;67235;45.638;11.714;2023-03-14T02:49:44;24.02;;;14.93;;
78027;SDS011;67235;45.638;11.714;2023-03-14T02:52:13;24.27;;;14.40;;
78027;SDS011;67235;45.638;11.714;2023-03-14T02:54:40;22.10;;;14.57;;
78027;SDS011;67235;45.638;11.714;2023-03-14T02:57:09;22.53;;;14.10;;
78027;SDS011;67235;45.638;11.714;2023-03-14T02:59:37;23.80;;;13.65;;
78027;SDS011;67235;45.638;11.714;2023-03-14T03:02:05;21.45;;;13.90;;
78027;SDS011;67235;45.638;11.714;2023-03-14T03:04:32;21.70;;;12.32;;
78027;SDS011;67235;45.638;11.714;2023-03-14T03:07:00;23.27;;;13.70;;
78027;SDS011;67235;45.638;11.714;2023-03-14T03:09:28;22.57;;;13.57;;
78027;SDS011;67235;45.638;11.714;2023-03-14T03:11:57;25.38;;;13.68;;
78027;SDS011;67235;45.638;11.714;2023-03-14T03:14:25;22.23;;;11.90;;
78027;SDS011;67235;45.638;11.714;2023-03-14T03:16:53;22.08;;;12.60;;
78027;SDS011;67235;45.638;11.714;2023-03-14T03:19:22;23.75;;;13.45;;
78027;SDS011;67235;45.638;11.714;2023-03-14T03:21:49;19.10;;;12.20;;
78027;SDS011;67235;45.638;11.714;2023-03-14T03:24:18;20.88;;;12.25;;
78027;SDS011;67235;45.638;11.714;2023-03-14T03:26:45;18.75;;;11.30;;
78027;SDS011;67235;45.638;11.714;2023-03-14T03:29:20;19.45;;;11.05;;
78027;SDS011;67235;45.638;11.714;2023-03-14T03:31:47;18.00;;;11.55;;
78027;SDS011;67235;45.638;11.714;2023-03-14T03:34:13;18.83;;;11.27;;
78027;SDS011;67235;45.638;11.714;2023-03-14T03:36:42;17.80;;;10.82;;
78027;SDS011;67235;45.638;11.714;2023-03-14T03:39:10;18.00;;;11.07;;
78027;SDS011;67235;45.638;11.714;2023-03-14T03:41:38;18.02;;;10.05;;
78027;SDS011;67235;45.638;11.714;2023-03-14T03:44:05;16.67;;;10.20;;
78027;SDS011;67235;45.638;11.714;2023-03-14T03:46:32;18.08;;;10.05;;
78027;SDS011;67235;45.638;11.714;2023-03-14T03:48:59;17.63;;;11.20;;
78027;SDS011;67235;45.638;11.714;2023-03-14T03:51:26;18.50;;;10.32;;
78027;SDS011;67235;45.638;11.714;2023-03-14T03:53:52;17.92;;;10.32;;
78027;SDS011;67235;45.638;11.714;2023-03-14T03:56:19;16.33;;;9.57;;
78027;SDS011;67235;45.638;11.714;2023-03-14T03:58:46;19.58;;;9.98;;
78027;SDS011;67235;45.638;11.714;2023-03-14T04:01:13;17.40;;;10.20;;
78027;SDS011;67235;45.638;11.714;2023-03-14T04:03:39;16.67;;;10.07;;
78027;SDS011;67235;45.638;11.714;2023-03-14T04:06:31;18.60;;;9.88;;
78027;SDS011;67235;45.638;11.714;2023-03-14T04:09:21;16.07;;;9.87;;
78027;SDS011;67235;45.638;11.714;2023-03-14T04:14:58;15.40;;;8.38;;
78027;SDS011;67235;45.638;11.714;2023-03-14T04:17:24;15.25;;;9.43;;
78027;SDS011;67235;45.638;11.714;2023-03-14T04:19:58;17.33;;;8.65;;
78027;SDS011;67235;45.638;11.714;2023-03-14T04:22:38;18.07;;;9.00;;
78027;SDS011;67235;45.638;11.714;2023-03-14T04:25:11;15.98;;;8.80;;
78027;SDS011;67235;45.638;11.714;2023-03-14T04:27:43;15.57;;;8.25;;
78027;SDS011;67235;45.638;11.714;2023-03-14T04:30:11;16.15;;;8.80;;
78027;SDS011;67235;45.638;11.714;2023-03-14T04:32:40;16.40;;;9.30;;
78027;SDS011;67235;45.638;11.714;2023-03-14T04:35:45;14.70;;;8.32;;
78027;SDS011;67235;45.638;11.714;2023-03-14T04:38:32;17.55;;;8.25;;
78027;SDS011;67235;45.638;11.714;2023-03-14T04:41:08;16.70;;;8.68;;
78027;SDS011;67235;45.638;11.714;2023-03-14T04:43:39;14.05;;;8.50;;
78027;SDS011;67235;45.638;11.714;2023-03-14T04:46:05;14.63;;;8.40;;
78027;SDS011;67235;45.638;11.714;2023-03-14T04:48:33;14.13;;;8.50;;
78027;SDS011;67235;45.638;11.714;2023-03-14T04:51:05;17.08;;;7.95;;
78027;SDS011;67235;45.638;11.714;2023-03-14T04:53:33;16.38;;;8.38;;
78027;SDS011;67235;45.638;11.714;2023-03-14T04:56:02;16.00;;;8.48;;
78027;SDS011;67235;45.638;11.714;2023-03-14T04:58:40;16.13;;;8.70;;
78027;SDS011;67235;45.638;11.714;2023-03-14T05:01:07;15.50;;;8.85;;
78027;SDS011;67235;45.638;11.714;2023-03-14T05:03:34;16.13;;;8.10;;
78027;SDS011;67235;45.638;11.714;2023-03-14T05:06:04;14.63;;;8.18;;
78027;SDS011;67235;45.638;11.714;2023-03-14T05:08:33;15.82;;;7.90;;
78027;SDS011;67235;45.638;11.714;2023-03-14T05:11:00;16.07;;;8.27;;
78027;SDS011;67235;45.638;11.714;2023-03-14T05:13:26;13.38;;;7.63;;
78027;SDS011;67235;45.638;11.714;2023-03-14T05:15:54;15.52;;;8.32;;
78027;SDS011;67235;45.638;11.714;2023-03-14T05:18:30;14.90;;;7.80;;
78027;SDS011;67235;45.638;11.714;2023-03-14T05:20:56;15.68;;;8.02;;
78027;SDS011;67235;45.638;11.714;2023-03-14T05:23:25;17.60;;;7.93;;
78027;SDS011;67235;45.638;11.714;2023-03-14T05:25:51;15.60;;;7.93;;
78027;SDS011;67235;45.638;11.714;2023-03-14T05:28:17;16.92;;;8.18;;
78027;SDS011;67235;45.638;11.714;2023-03-14T05:30:43;18.05;;;8.45;;
78027;SDS011;67235;45.638;11.714;2023-03-14T05:33:12;19.53;;;7.53;;
78027;SDS011;67235;45.638;11.714;2023-03-14T05:35:38;18.67;;;7.78;;
78027;SDS011;67235;45.638;11.714;2023-03-14T05:38:05;18.90;;;7.97;;
78027;SDS011;67235;45.638;11.714;2023-03-14T05:40:32;17.42;;;7.53;;
78027;SDS011;67235;45.638;11.714;2023-03-14T05:43:00;14.90;;;7.95;;
78027;SDS011;67235;45.638;11.714;2023-03-14T05:45:32;16.83;;;7.80;;
78027;SDS011;67235;45.638;11.714;2023-03-14T05:48:00;16.92;;;7.30;;
78027;SDS011;67235;45.638;11.714;2023-03-14T05:50:26;18.08;;;8.32;;
78027;SDS011;67235;45.638;11.714;2023-03-14T05:52:52;21.85;;;8.00;;
78027;SDS011;67235;45.638;11.714;2023-03-14T05:55:17;17.97;;;7.90;;
78027;SDS011;67235;45.638;11.714;2023-03-14T05:57:45;21.35;;;9.30;;
78027;SDS011;67235;45.638;11.714;2023-03-14T06:00:12;20.70;;;8.07;;
78027;SDS011;67235;45.638;11.714;2023-03-14T06:02:40;16.90;;;7.55;;
78027;SDS011;67235;45.638;11.714;2023-03-14T06:05:08;19.00;;;8.07;;
78027;SDS011;67235;45.638;11.714;2023-03-14T06:07:34;15.98;;;7.50;;
78027;SDS011;67235;45.638;11.714;2023-03-14T06:10:00;20.67;;;8.50;;
78027;SDS011;67235;45.638;11.714;2023-03-14T06:12:26;19.25;;;8.20;;
78027;SDS011;67235;45.638;11.714;2023-03-14T06:14:53;18.37;;;7.80;;
78027;SDS011;67235;45.638;11.714;2023-03-14T06:17:19;16.83;;;7.53;;
78027;SDS011;67235;45.638;11.714;2023-03-14T06:22:22;22.85;;;10.23;;
78027;SDS011;67235;45.638;11.714;2023-03-14T06:24:58;22.27;;;10.57;;
78027;SDS011;67235;45.638;11.714;2023-03-14T06:27:31;21.50;;;9.80;;
78027;SDS011;67235;45.638;11.714;2023-03-14T06:30:08;22.75;;;9.98;;
78027;SDS011;67235;45.638;11.714;2023-03-14T06:32:41;23.17;;;10.80;;
78027;SDS011;67235;45.638;11.714;2023-03-14T06:35:22;23.60;;;10.50;;
78027;SDS011;67235;45.638;11.714;2023-03-14T06:37:49;23.25;;;9.75;;
78027;SDS011;67235;45.638;11.714;2023-03-14T06:40:20;21.80;;;10.47;;
78027;SDS011;67235;45.638;11.714;2023-03-14T06:43:13;20.33;;;9.18;;
78027;SDS011;67235;45.638;11.714;2023-03-14T06:45:46;22.88;;;11.07;;
78027;SDS011;67235;45.638;11.714;2023-03-14T06:48:13;24.92;;;10.77;;
78027;SDS011;67235;45.638;11.714;2023-03-14T06:50:39;29.73;;;12.88;;
78027;SDS011;67235;45.638;11.714;2023-03-14T06:53:05;27.38;;;12.57;;
78027;SDS011;67235;45.638;11.714;2023-03-14T06:55:38;34.90;;;14.48;;
78027;SDS011;67235;45.638;11.714;2023-03-14T06:58:31;28.88;;;14.65;;
78027;SDS011;67235;45.638;11.714;2023-03-14T07:00:57;24.23;;;13.43;;
78027;SDS011;67235;45.638;11.714;2023-03-14T07:03:23;25.48;;;13.73;;
78027;SDS011;67235;45.638;11.714;2023-03-14T07:05:56;28.00;;;14.23;;
78027;SDS011;67235;45.638;11.714;2023-03-14T07:08:28;27.38;;;13.90;;
78027;SDS011;67235;45.638;11.714;2023-03-14T07:10:59;28.50;;;14.95;;
78027;SDS011;67235;45.638;11.714;2023-03-14T07:13:28;31.93;;;16.10;;
78027;SDS011;67235;45.638;11.714;2023-03-14T07:15:54;29.25;;;16.88;;
78027;SDS011;67235;45.638;11.714;2023-03-14T07:18:22;29.90;;;15.15;;
78027;SDS011;67235;45.638;11.714;2023-03-14T07:20:48;25.35;;;15.32;;
78027;SDS011;67235;45.638;11.714;2023-03-14T07:23:14;28.95;;;14.45;;
78027;SDS011;67235;45.638;11.714;2023-03-14T07:25:39;26.95;;;15.07;;
78027;SDS011;67235;45.638;11.714;2023-03-14T07:28:05;22.77;;;13.07;;
78027;SDS011;67235;45.638;11.714;2023-03-14T07:30:32;23.45;;;13.88;;
78027;SDS011;67235;45.638;11.714;2023-03-14T07:32:58;25.42;;;14.95;;
78027;SDS011;67235;45.638;11.714;2023-03-14T07:35:23;28.80;;;15.07;;
78027;SDS011;67235;45.638;11.714;2023-03-14T07:37:49;23.87;;;14.07;;
78027;SDS011;67235;45.638;11.714;2023-03-14T07:40:15;25.17;;;13.90;;
78027;SDS011;67235;45.638;11.714;2023-03-14T07:42:42;26.75;;;14.23;;
78027;SDS011;67235;45.638;11.714;2023-03-14T07:45:08;28.15;;;13.85;;
78027;SDS011;67235;45.638;11.714;2023-03-14T07:47:35;26.33;;;13.33;;
78027;SDS011;67235;45.638;11.714;2023-03-14T07:50:01;24.13;;;13.48;;
78027;SDS011;67235;45.638;11.714;2023-03-14T07:52:28;26.45;;;14.45;;
78027;SDS011;67235;45.638;11.714;2023-03-14T07:54:54;24.67;;;14.07;;
78027;SDS011;67235;45.638;11.714;2023-03-14T07:57:19;22.77;;;13.10;;
78027;SDS011;67235;45.638;11.714;2023-03-14T07:59:45;25.55;;;15.00;;
78027;SDS011;67235;45.638;11.714;2023-03-14T08:02:11;26.95;;;14.07;;
78027;SDS011;67235;45.638;11.714;2023-03-14T08:04:38;27.43;;;14.03;;
78027;SDS011;67235;45.638;11.714;2023-03-14T08:07:08;23.02;;;13.30;;
78027;SDS011;67235;45.638;11.714;2023-03-14T08:09:33;22.23;;;12.48;;
78027;SDS011;67235;45.638;11.714;2023-03-14T08:11:59;22.23;;;12.88;;
78027;SDS011;67235;45.638;11.714;2023-03-14T08:14:25;24.43;;;12.70;;
78027;SDS011;67235;45.638;11.714;2023-03-14T08:16:53;20.13;;;12.18;;
78027;SDS011;67235;45.638;11.714;2023-03-14T08:19:18;19.23;;;11.55;;
78027;SDS011;67235;45.638;11.714;2023-03-14T08:21:45;22.80;;;12.77;;
78027;SDS011;67235;45.638;11.714;2023-03-14T08:24:11;24.73;;;12.05;;
78027;SDS011;67235;45.638;11.714;2023-03-14T08:26:37;22.98;;;11.98;;
78027;SDS011;67235;45.638;11.714;2023-03-14T08:29:03;21.10;;;12.73;;
78027;SDS011;67235;45.638;11.714;2023-03-14T08:31:29;23.37;;;12.37;;
78027;SDS011;67235;45.638;11.714;2023-03-14T08:33:58;23.33;;;11.73;;
78027;SDS011;67235;45.638;11.714;2023-03-14T08:36:24;21.27;;;11.95;;
78027;SDS011;67235;45.638;11.714;2023-03-14T08:38:50;20.98;;;12.45;;
78027;SDS011;67235;45.638;11.714;2023-03-14T08:41:16;20.65;;;11.07;;
78027;SDS011;67235;45.638;11.714;2023-03-14T08:43:42;21.67;;;11.67;;
78027;SDS011;67235;45.638;11.714;2023-03-14T08:46:08;19.48;;;11.45;;
78027;SDS011;67235;45.638;11.714;2023-03-14T08:48:34;25.30;;;12.35;;
78027;SDS011;67235;45.638;11.714;2023-03-14T08:51:07;25.43;;;12.27;;
78027;SDS011;67235;45.638;11.714;2023-03-14T08:53:37;23.10;;;12.13;;
78027;SDS011;67235;45.638;11.714;2023-03-14T08:56:04;23.02;;;12.15;;
78027;SDS011;67235;45.638;11.714;2023-03-14T08:58:32;23.15;;;12.38;;
78027;SDS011;67235;45.638;11.714;2023-03-14T09:01:01;20.73;;;11.88;;
78027;SDS011;67235;45.638;11.714;2023-03-14T09:03:34;22.27;;;11.77;;
78027;SDS011;67235;45.638;11.714;2023-03-14T09:06:10;20.25;;;11.00;;
78027;SDS011;67235;45.638;11.714;2023-03-14T09:08:36;21.65;;;12.57;;
78027;SDS011;67235;45.638;11.714;2023-03-14T09:11:08;24.70;;;12.18;;
78027;SDS011;67235;45.638;11.714;2023-03-14T09:16:20;18.17;;;11.10;;
78027;SDS011;67235;45.638;11.714;2023-03-14T09:18:50;20.17;;;10.30;;
78027;SDS011;67235;45.638;11.714;2023-03-14T09:21:25;22.88;;;11.23;;
78027;SDS011;67235;45.638;11.714;2023-03-14T09:23:56;22.13;;;10.32;;
78027;SDS011;67235;45.638;11.714;2023-03-14T09:26:31;22.05;;;10.98;;
78027;SDS011;67235;45.638;11.714;2023-03-14T09:34:42;20.02;;;10.45;;
78027;SDS011;67235;45.638;11.714;2023-03-14T09:37:27;18.98;;;10.38;;
78027;SDS011;67235;45.638;11.714;2023-03-14T09:40:09;18.60;;;10.45;;
78027;SDS011;67235;45.638;11.714;2023-03-14T09:42:52;19.40;;;11.07;;
78027;SDS011;67235;45.638;11.714;2023-03-14T09:48:17;20.42;;;10.20;;
78027;SDS011;67235;45.638;11.714;2023-03-14T09:50:50;21.02;;;10.55;;
78027;SDS011;67235;45.638;11.714;2023-03-14T09:53:24;18.92;;;10.35;;
78027;SDS011;67235;45.638;11.714;2023-03-14T09:56:03;20.77;;;10.68;;
78027;SDS011;67235;45.638;11.714;2023-03-14T09:58:29;20.73;;;10.30;;
78027;SDS011;67235;45.638;11.714;2023-03-14T10:00:56;17.50;;;10.25;;
78027;SDS011;67235;45.638;11.714;2023-03-14T10:03:25;20.15;;;10.65;;
78027;SDS011;67235;45.638;11.714;2023-03-14T10:05:56;18.83;;;10.05;;
78027;SDS011;67235;45.638;11.714;2023-03-14T10:08:22;17.85;;;10.57;;
78027;SDS011;67235;45.638;11.714;2023-03-14T10:10:48;16.50;;;9.57;;
78027;SDS011;67235;45.638;11.714;2023-03-14T10:13:16;16.50;;;9.88;;
78027;SDS011;67235;45.638;11.714;2023-03-14T10:15:47;16.00;;;9.48;;
78027;SDS011;67235;45.638;11.714;2023-03-14T10:18:20;21.17;;;10.70;;
78027;SDS011;67235;45.638;11.714;2023-03-14T10:20:49;17.37;;;10.13;;
78027;SDS011;67235;45.638;11.714;2023-03-14T10:23:27;18.73;;;10.00;;
78027;SDS011;67235;45.638;11.714;2023-03-14T10:28:48;14.23;;;8.35;;
78027;SDS011;67235;45.638;11.714;2023-03-14T10:31:18;16.73;;;9.00;;
78027;SDS011;67235;45.638;11.714;2023-03-14T10:33:59;14.43;;;8.70;;
78027;SDS011;67235;45.638;11.714;2023-03-14T10:36:28;18.23;;;9.60;;
78027;SDS011;67235;45.638;11.714;2023-03-14T10:42:05;17.92;;;8.50;;
78027;SDS011;67235;45.638;11.714;2023-03-14T10:44:58;17.10;;;9.43;;
78027;SDS011;67235;45.638;11.714;2023-03-14T10:47:31;16.87;;;9.23;;
78027;SDS011;67235;45.638;11.714;2023-03-14T10:49:57;15.80;;;8.05;;
78027;SDS011;67235;45.638;11.714;2023-03-14T10:52:49;14.77;;;8.90;;
78027;SDS011;67235;45.638;11.714;2023-03-14T10:55:17;16.75;;;9.63;;
78027;SDS011;67235;45.638;11.714;2023-03-14T10:57:43;15.82;;;9.57;;
78027;SDS011;67235;45.638;11.714;2023-03-14T11:00:14;15.73;;;9.03;;
78027;SDS011;67235;45.638;11.714;2023-03-14T11:05:32;19.20;;;9.45;;
78027;SDS011;67235;45.638;11.714;2023-03-14T11:08:17;17.27;;;9.30;;
78027;SDS011;67235;45.638;11.714;2023-03-14T11:10:47;17.15;;;9.90;;
78027;SDS011;67235;45.638;11.714;2023-03-14T11:13:26;16.40;;;9.70;;
78027;SDS011;67235;45.638;11.714;2023-03-14T11:16:06;18.48;;;10.00;;
78027;SDS011;67235;45.638;11.714;2023-03-14T11:21:37;18.02;;;8.85;;
78027;SDS011;67235;45.638;11.714;2023-03-14T11:27:13;19.97;;;9.23;;
78027;SDS011;67235;45.638;11.714;2023-03-14T11:29:54;15.38;;;8.55;;
78027;SDS011;67235;45.638;11.714;2023-03-14T11:41:25;15.10;;;7.53;;
78027;SDS011;67235;45.638;11.714;2023-03-14T11:43:58;16.52;;;8.00;;
78027;SDS011;67235;45.638;11.714;2023-03-14T11:46:29;18.08;;;8.57;;
78027;SDS011;67235;45.638;11.714;2023-03-14T11:51:39;16.77;;;8.00;;
78027;SDS011;67235;45.638;11.714;2023-03-14T11:54:31;18.33;;;8.77;;
78027;SDS011;67235;45.638;11.714;2023-03-14T11:57:15;15.68;;;8.25;;
78027;SDS011;67235;45.638;11.714;2023-03-14T12:10:09;15.35;;;7.00;;
78027;SDS011;67235;45.638;11.714;2023-03-14T12:12:35;16.83;;;7.28;;
78027;SDS011;67235;45.638;11.714;2023-03-14T12:15:02;15.10;;;8.23;;
78027;SDS011;67235;45.638;11.714;2023-03-14T12:17:35;15.52;;;7.30;;
78027;SDS011;67235;45.638;11.714;2023-03-14T12:22:43;12.02;;;6.80;;
78027;SDS011;67235;45.638;11.714;2023-03-14T12:27:48;17.88;;;7.18;;
78027;SDS011;67235;45.638;11.714;2023-03-14T12:35:38;17.33;;;7.00;;
78027;SDS011;67235;45.638;11.714;2023-03-14T12:38:06;14.25;;;6.80;;
78027;SDS011;67235;45.638;11.714;2023-03-14T12:40:37;14.88;;;6.82;;
78027;SDS011;67235;45.638;11.714;2023-03-14T12:43:24;11.43;;;6.13;;
78027;SDS011;67235;45.638;11.714;2023-03-14T12:46:14;13.67;;;6.90;;
78027;SDS011;67235;45.638;11.714;2023-03-14T12:48:46;14.63;;;6.22;;
78027;SDS011;67235;45.638;11.714;2023-03-14T12:51:16;12.52;;;6.68;;
78027;SDS011;67235;45.638;11.714;2023-03-14T12:53:47;17.25;;;6.57;;
78027;SDS011;67235;45.638;11.714;2023-03-14T12:59:29;13.63;;;6.50;;
78027;SDS011;67235;45.638;11.714;2023-03-14T13:02:01;16.17;;;6.90;;
78027;SDS011;67235;45.638;11.714;2023-03-14T13:10:02;12.55;;;5.63;;
78027;SDS011;67235;45.638;11.714;2023-03-14T13:12:37;13.57;;;5.97;;
78027;SDS011;67235;45.638;11.714;2023-03-14T13:15:13;16.13;;;6.20;;
78027;SDS011;67235;45.638;11.714;2023-03-14T13:17:46;11.80;;;5.30;;
78027;SDS011;67235;45.638;11.714;2023-03-14T13:20:57;9.60;;;4.82;;
78027;SDS011;67235;45.638;11.714;2023-03-14T13:23:19;13.13;;;5.75;;
78027;SDS011;67235;45.638;11.714;2023-03-14T13:25:49;12.63;;;5.67;;
78027;SDS011;67235;45.638;11.714;2023-03-14T13:28:15;16.35;;;4.85;;
78027;SDS011;67235;45.638;11.714;2023-03-14T13:30:43;13.73;;;4.90;;
78027;SDS011;67235;45.638;11.714;2023-03-14T13:33:12;12.80;;;4.80;;
78027;SDS011;67235;45.638;11.714;2023-03-14T13:35:46;11.20;;;5.22;;
78027;SDS011;67235;45.638;11.714;2023-03-14T13:38:30;14.83;;;5.13;;
78027;SDS011;67235;45.638;11.714;2023-03-14T13:40:58;10.80;;;5.47;;
78027;SDS011;67235;45.638;11.714;2023-03-14T13:43:27;11.13;;;4.88;;
78027;SDS011;67235;45.638;11.714;2023-03-14T13:46:20;16.70;;;5.13;;
78027;SDS011;67235;45.638;11.714;2023-03-14T13:48:48;10.23;;;4.72;;
78027;SDS011;67235;45.638;11.714;2023-03-14T13:51:17;13.00;;;5.45;;
78027;SDS011;67235;45.638;11.714;2023-03-14T13:53:45;9.70;;;4.88;;
78027;SDS011;67235;45.638;11.714;2023-03-14T13:56:14;12.85;;;5.57;;
78027;SDS011;67235;45.638;11.714;2023-03-14T13:58:42;10.65;;;5.15;;
78027;SDS011;67235;45.638;11.714;2023-03-14T14:01:12;8.15;;;4.20;;
78027;SDS011;67235;45.638;11.714;2023-03-14T14:03:44;9.80;;;5.00;;
78027;SDS011;67235;45.638;11.714;2023-03-14T14:06:26;11.27;;;5.13;;
78027;SDS011;67235;45.638;11.714;2023-03-14T14:08:57;9.15;;;4.65;;
78027;SDS011;67235;45.638;11.714;2023-03-14T14:11:41;9.27;;;4.70;;
78027;SDS011;67235;45.638;11.714;2023-03-14T14:14:15;10.13;;;4.93;;
78027;SDS011;67235;45.638;11.714;2023-03-14T14:16:54;12.13;;;5.10;;
78027;SDS011;67235;45.638;11.714;2023-03-14T14:19:24;9.15;;;4.47;;
78027;SDS011;67235;45.638;11.714;2023-03-14T14:22:09;10.48;;;4.60;;
78027;SDS011;67235;45.638;11.714;2023-03-14T14:24:39;10.40;;;5.18;;
78027;SDS011;67235;45.638;11.714;2023-03-14T14:27:28;9.13;;;5.10;;
78027;SDS011;67235;45.638;11.714;2023-03-14T14:30:45;10.57;;;5.60;;
78027;SDS011;67235;45.638;11.714;2023-03-14T14:32:47;11.77;;;5.85;;
78027;SDS011;67235;45.638;11.714;2023-03-14T14:35:33;11.80;;;4.57;;
78027;SDS011;67235;45.638;11.714;2023-03-14T14:38:00;8.90;;;5.07;;
78027;SDS011;67235;45.638;11.714;2023-03-14T14:40:28;8.77;;;4.68;;
78027;SDS011;67235;45.638;11.714;2023-03-14T14:43:02;12.63;;;5.07;;
78027;SDS011;67235;45.638;11.714;2023-03-14T14:45:29;15.23;;;4.93;;
78027;SDS011;67235;45.638;11.714;2023-03-14T14:50:36;12.80;;;5.20;;
78027;SDS011;67235;45.638;11.714;2023-03-14T14:56:15;15.27;;;5.05;;
78027;SDS011;67235;45.638;11.714;2023-03-14T14:58:47;10.85;;;5.45;;
78027;SDS011;67235;45.638;11.714;2023-03-14T15:01:14;12.23;;;5.78;;
78027;SDS011;67235;45.638;11.714;2023-03-14T15:03:49;11.43;;;5.50;;
78027;SDS011;67235;45.638;11.714;2023-03-14T15:06:17;10.18;;;5.03;;
78027;SDS011;67235;45.638;11.714;2023-03-14T15:08:46;9.48;;;4.72;;
78027;SDS011;67235;45.638;11.714;2023-03-14T15:13:51;7.97;;;4.70;;
78027;SDS011;67235;45.638;11.714;2023-03-14T15:16:20;12.43;;;5.18;;
78027;SDS011;67235;45.638;11.714;2023-03-14T15:18:58;7.95;;;4.15;;
78027;SDS011;67235;45.638;11.714;2023-03-14T15:21:30;12.93;;;4.75;;
78027;SDS011;67235;45.638;11.714;2023-03-14T15:23:57;9.57;;;4.28;;
78027;SDS011;67235;45.638;11.714;2023-03-14T15:26:27;9.77;;;4.65;;
78027;SDS011;67235;45.638;11.714;2023-03-14T15:28:54;10.55;;;4.68;;
78027;SDS011;67235;45.638;11.714;2023-03-14T15:31:20;10.30;;;4.80;;
78027;SDS011;67235;45.638;11.714;2023-03-14T15:33:46;9.20;;;4.27;;
78027;SDS011;67235;45.638;11.714;2023-03-14T15:36:16;12.57;;;4.72;;
78027;SDS011;67235;45.638;11.714;2023-03-14T15:38:48;9.45;;;4.78;;
78027;SDS011;67235;45.638;11.714;2023-03-14T15:41:14;13.10;;;4.53;;
78027;SDS011;67235;45.638;11.714;2023-03-14T15:43:40;13.05;;;4.43;;
78027;SDS011;67235;45.638;11.714;2023-03-14T15:46:10;9.30;;;3.90;;
78027;SDS011;67235;45.638;11.714;2023-03-14T15:48:36;7.95;;;4.45;;
78027;SDS011;67235;45.638;11.714;2023-03-14T15:51:03;9.80;;;4.65;;
78027;SDS011;67235;45.638;11.714;2023-03-14T15:53:29;9.23;;;4.30;;
78027;SDS011;67235;45.638;11.714;2023-03-14T15:55:55;11.23;;;5.00;;
78027;SDS011;67235;45.638;11.714;2023-03-14T15:58:21;10.30;;;5.22;;
78027;SDS011;67235;45.638;11.714;2023-03-14T16:00:47;11.13;;;5.05;;
78027;SDS011;67235;45.638;11.714;2023-03-14T16:03:14;10.27;;;4.80;;
78027;SDS011;67235;45.638;11.714;2023-03-14T16:05:40;11.63;;;4.80;;
78027;SDS011;67235;45.638;11.714;2023-03-14T16:08:06;9.80;;;5.10;;
78027;SDS011;67235;45.638;11.714;2023-03-14T16:10:32;10.32;;;5.57;;
78027;SDS011;67235;45.638;11.714;2023-03-14T16:12:58;13.50;;;5.03;;
78027;SDS011;67235;45.638;11.714;2023-03-14T16:15:25;12.63;;;5.40;;